Time;durP1;ratioP1;P1;durP2;ratioP2;P2;SDS_P1;SDS_P2;PMS_P1;PMS_P2;Temp;Humidity;BMP_temperature;BMP_pressure;BME280_temperature;BME280_humidity;BME280_pressure;Samples;Min_cycle;Max_cycle;Signal;HPM_P1;HPM_P2
2023/08/12 00:01:33;;;;;;;;;26.00;22.60;;;;;22.27;62.06;100105.84;4977175;28;8845;-59
2023/08/12 00:04:01;;;;;;;;;25.00;23.00;;;;;22.22;61.67;100116.41;4976584;28;8852;-59
2023/08/12 00:06:29;;;;;;;;;22.20;19.40;;;;;22.19;62.45;100114.09;4976385;28;8844;-59
2023/08/12 00:08:57;;;;;;;;;23.00;22.60;;;;;22.17;62.30;100113.47;4978083;28;8824;-59
2023/08/12 00:11:24;;;;;;;;;25.80;22.40;;;;;22.12;62.77;100111.31;4977977;28;8845;-59
2023/08/12 00:13:52;;;;;;;;;22.00;21.60;;;;;22.09;62.51;100103.53;4977988;28;8910;-59
2023/08/12 00:16:20;;;;;;;;;30.40;26.60;;;;;22.03;62.64;100109.72;4977747;28;8837;-59
2023/08/12 00:18:47;;;;;;;;;29.80;28.80;;;;;21.99;63.37;100107.59;4978030;28;8824;-59
2023/08/12 00:21:16;;;;;;;;;30.40;27.40;;;;;21.95;63.18;100098.16;4977946;28;8963;-59
2023/08/12 00:23:44;;;;;;;;;28.20;26.80;;;;;21.92;63.28;100084.97;4977219;28;8837;-58
2023/08/12 00:26:11;;;;;;;;;29.60;27.80;;;;;21.90;63.25;100081.63;4978118;28;8848;-59
2023/08/12 00:28:39;;;;;;;;;22.60;22.40;;;;;21.88;63.29;100086.41;4977156;28;8899;-60
2023/08/12 00:31:07;;;;;;;;;32.60;28.60;;;;;21.87;63.77;100087.44;4958702;28;8830;-60
2023/08/12 00:33:35;;;;;;;;;34.20;32.80;;;;;21.85;63.61;100084.09;4958617;28;8846;-60
2023/08/12 00:36:02;;;;;;;;;23.40;22.20;;;;;21.84;64.14;100068.81;4958786;28;8859;-59
2023/08/12 00:38:30;;;;;;;;;31.20;28.60;;;;;21.82;63.56;100073.59;4958956;28;8839;-59
2023/08/12 00:40:58;;;;;;;;;32.20;30.80;;;;;21.81;63.84;100077.34;4958548;28;8890;-61
2023/08/12 00:43:26;;;;;;;;;27.80;26.40;;;;;21.80;63.83;100059.41;4958887;28;8838;-61
2023/08/12 00:45:54;;;;;;;;;34.60;31.20;;;;;21.80;64.34;100062.09;4958437;28;8831;-58
2023/08/12 00:48:23;;;;;;;;;31.20;26.80;;;;;21.79;63.86;100060.44;4958677;28;8835;-59
2023/08/12 00:50:50;;;;;;;;;30.40;27.20;;;;;21.77;63.87;100065.19;4958581;28;9631;-59
2023/08/12 00:53:18;;;;;;;;;31.60;27.40;;;;;21.75;64.13;100061.81;4958835;28;8834;-60
2023/08/12 00:55:46;;;;;;;;;33.00;29.40;;;;;21.75;63.98;100072.66;4958443;28;8842;-59
2023/08/12 00:58:13;;;;;;;;;34.40;30.00;;;;;21.74;64.26;100073.72;4961966;28;8828;-59
2023/08/12 01:00:41;;;;;;;;;27.00;25.40;;;;;21.73;64.20;100075.59;4977069;28;8844;-59
2023/08/12 01:03:09;;;;;;;;;29.20;27.40;;;;;21.72;64.31;100073.06;4977253;28;8813;-60
2023/08/12 01:05:37;;;;;;;;;30.60;27.20;;;;;21.69;64.67;100068.00;4977375;28;8825;-60
2023/08/12 01:08:07;;;;;;;;;30.20;29.20;;;;;21.67;64.67;100068.22;4977233;28;8848;-59
2023/08/12 01:10:35;;;;;;;;;31.80;29.80;;;;;21.69;64.99;100073.44;4976993;28;8859;-59
2023/08/12 01:13:02;;;;;;;;;39.40;32.40;;;;;21.67;64.68;100067.34;4977449;28;8844;-60
2023/08/12 01:15:30;;;;;;;;;32.80;31.80;;;;;21.64;65.15;100063.13;4976735;28;8829;-59
2023/08/12 01:17:58;;;;;;;;;35.40;34.60;;;;;21.65;64.77;100061.25;4977941;28;8840;-60
2023/08/12 01:20:26;;;;;;;;;42.60;36.20;;;;;21.63;65.00;100072.28;4977492;28;9578;-59
2023/08/12 01:22:53;;;;;;;;;35.80;31.00;;;;;21.61;64.92;100066.22;4976873;28;8959;-59
2023/08/12 01:25:21;;;;;;;;;33.20;29.60;;;;;21.58;65.05;100063.91;4976390;28;8824;-59
2023/08/12 01:27:49;;;;;;;;;31.60;29.60;;;;;21.56;65.01;100062.41;4975700;28;8858;-59
2023/08/12 01:30:17;;;;;;;;;35.00;31.00;;;;;21.54;65.48;100075.28;4976794;28;8863;-59
2023/08/12 01:32:45;;;;;;;;;34.20;29.40;;;;;21.48;65.28;100065.22;4976621;28;8832;-60
2023/08/12 01:35:12;;;;;;;;;28.40;26.40;;;;;21.45;65.53;100057.44;4976831;28;8847;-59
2023/08/12 01:37:40;;;;;;;;;35.40;31.80;;;;;21.41;65.63;100056.97;4976187;28;8832;-60
2023/08/12 01:40:09;;;;;;;;;32.40;31.40;;;;;21.38;65.99;100049.25;4976671;28;8828;-59
2023/08/12 01:42:36;;;;;;;;;33.80;29.60;;;;;21.36;65.74;100055.88;4976993;28;8864;-59
2023/08/12 01:45:04;;;;;;;;;31.80;29.80;;;;;21.34;65.81;100057.94;4976911;28;8979;-58
2023/08/12 01:47:32;;;;;;;;;25.40;25.20;;;;;21.34;65.84;100057.94;4976972;28;8831;-59
2023/08/12 01:50:00;;;;;;;;;25.00;22.40;;;;;21.34;66.00;100055.22;4976871;28;8829;-59
2023/08/12 01:52:28;;;;;;;;;27.60;24.60;;;;;21.33;66.50;100050.84;4977178;28;9561;-58
2023/08/12 01:54:57;;;;;;;;;23.00;19.60;;;;;21.31;66.25;100055.59;4977064;28;8838;-59
2023/08/12 01:57:24;;;;;;;;;29.20;26.60;;;;;21.29;66.29;100054.94;4977067;28;8863;-60
2023/08/12 01:59:52;;;;;;;;;27.20;25.80;;;;;21.24;66.32;100057.34;4976775;28;8901;-59
2023/08/12 02:02:20;;;;;;;;;26.20;24.80;;;;;21.18;66.67;100056.25;4976648;28;8821;-59
2023/08/12 02:04:47;;;;;;;;;21.40;19.00;;;;;21.15;66.73;100048.50;4976687;28;8841;-59
2023/08/12 02:07:15;;;;;;;;;30.80;27.80;;;;;21.12;66.85;100048.03;4976640;28;8835;-59
2023/08/12 02:09:42;;;;;;;;;18.00;15.00;;;;;21.12;66.69;100034.50;4976582;28;8832;-59
2023/08/12 02:12:10;;;;;;;;;26.20;24.60;;;;;21.12;67.21;100034.50;4976789;28;8820;-61
2023/08/12 02:14:38;;;;;;;;;26.40;23.40;;;;;21.13;67.33;100033.47;4976516;28;8856;-61
2023/08/12 02:17:05;;;;;;;;;25.00;24.40;;;;;21.13;67.22;100038.88;4976713;28;8935;-59
2023/08/12 02:19:33;;;;;;;;;22.80;20.80;;;;;21.12;66.67;100029.06;4976632;28;8848;-59
2023/08/12 02:22:01;;;;;;;;;28.60;25.60;;;;;21.14;67.21;100027.00;4975553;28;8832;-59
2023/08/12 02:24:29;;;;;;;;;25.60;21.80;;;;;21.14;67.20;100029.72;4976631;28;8832;-59
2023/08/12 02:26:56;;;;;;;;;29.60;25.80;;;;;21.15;67.25;100025.97;4976263;28;8963;-61
2023/08/12 02:29:24;;;;;;;;;23.80;21.80;;;;;21.15;67.24;100021.41;4976674;28;8867;-59
2023/08/12 02:31:52;;;;;;;;;25.00;24.80;;;;;21.15;67.28;100017.84;4976705;28;8851;-60
2023/08/12 02:34:20;;;;;;;;;26.20;25.80;;;;;21.14;67.41;100014.31;4976382;28;8820;-59
2023/08/12 02:36:47;;;;;;;;;24.60;22.80;;;;;21.15;66.91;100018.72;4976287;28;8838;-60
2023/08/12 02:39:15;;;;;;;;;21.60;21.00;;;;;21.15;66.79;100009.72;4978743;28;8828;-59
2023/08/12 02:41:43;;;;;;;;;28.00;26.20;;;;;21.15;67.44;100015.13;4980044;28;8891;-59
2023/08/12 02:44:10;;;;;;;;;22.80;21.00;;;;;21.15;67.23;100016.00;4980545;28;8848;-59
2023/08/12 02:46:38;;;;;;;;;32.40;28.00;;;;;21.14;67.46;100014.31;4980130;28;8832;-59
2023/08/12 02:49:05;;;;;;;;;17.80;17.80;;;;;21.16;67.21;100019.53;4980177;28;8828;-60
2023/08/12 02:51:33;;;;;;;;;25.00;23.20;;;;;21.15;67.16;100012.44;4979390;28;8829;-61
2023/08/12 02:54:01;;;;;;;;;21.60;20.40;;;;;21.16;67.18;100011.41;4979394;28;8828;-60
2023/08/12 02:56:30;;;;;;;;;27.20;25.20;;;;;21.16;67.50;100014.97;4979919;28;8828;-59
2023/08/12 02:58:57;;;;;;;;;27.40;23.80;;;;;21.16;67.68;100005.97;4980225;28;9510;-58
2023/08/12 03:01:27;;;;;;;;;19.80;18.00;;;;;21.15;67.56;100005.16;4979883;28;8824;-59
2023/08/12 03:03:54;;;;;;;;;30.80;27.00;;;;;21.16;67.65;100001.41;4979517;28;8864;-58
2023/08/12 03:06:22;;;;;;;;;21.60;18.60;;;;;21.15;67.70;99999.75;4979955;28;8837;-59
2023/08/12 03:08:50;;;;;;;;;25.00;21.20;;;;;21.16;67.38;99996.00;4980085;28;8836;-58
2023/08/12 03:11:19;;;;;;;;;28.00;25.20;;;;;21.15;67.37;99990.75;4979591;28;8820;-60
2023/08/12 03:13:46;;;;;;;;;22.60;21.40;;;;;21.14;67.98;99991.78;4979759;28;8947;-58
2023/08/12 03:16:14;;;;;;;;;24.40;21.80;;;;;21.14;67.47;99986.38;4979543;28;8859;-60
2023/08/12 03:18:42;;;;;;;;;20.20;19.00;;;;;21.12;67.54;99977.59;4979513;28;8859;-58
2023/08/12 03:21:11;;;;;;;;;21.00;20.40;;;;;21.12;67.75;99969.47;4978927;28;8812;-59
2023/08/12 03:23:38;;;;;;;;;25.80;23.20;;;;;21.12;68.20;99966.78;4979590;28;8828;-60
2023/08/12 03:26:06;;;;;;;;;19.40;18.40;;;;;21.09;68.09;99967.13;4979316;28;8829;-60
2023/08/12 03:28:33;;;;;;;;;27.80;24.60;;;;;21.07;68.21;99959.22;4979252;28;8843;-61
2023/08/12 03:31:01;;;;;;;;;25.80;24.60;;;;;21.06;67.82;99962.09;4979290;28;8831;-60
2023/08/12 03:33:29;;;;;;;;;21.60;19.40;;;;;21.05;67.97;99957.72;4979141;28;8859;-60
2023/08/12 03:35:57;;;;;;;;;20.60;18.20;;;;;21.03;68.37;99949.78;4979133;28;8834;-60
2023/08/12 03:38:24;;;;;;;;;28.00;24.40;;;;;21.03;68.03;99948.94;4979023;28;8855;-60
2023/08/12 03:40:52;;;;;;;;;20.40;18.00;;;;;21.02;68.42;99941.84;4979151;28;8844;-61
2023/08/12 03:43:20;;;;;;;;;20.00;18.80;;;;;21.00;68.03;99942.03;4978956;28;8825;-58
2023/08/12 03:45:47;;;;;;;;;20.80;18.00;;;;;21.00;68.13;99935.75;4978651;28;8842;-59
2023/08/12 03:48:15;;;;;;;;;18.20;17.80;;;;;20.99;68.14;99944.91;4978440;28;8828;-59
2023/08/12 03:50:43;;;;;;;;;12.80;12.80;;;;;20.99;68.26;99934.09;4977661;28;8859;-58
2023/08/12 03:53:10;;;;;;;;;13.40;11.00;;;;;21.00;68.49;99935.75;4959228;28;8848;-60
2023/08/12 03:55:38;;;;;;;;;17.80;17.00;;;;;20.99;68.17;99939.50;4959287;28;8888;-59
2023/08/12 03:58:06;;;;;;;;;15.20;15.20;;;;;20.99;68.12;99928.66;4959235;28;8919;-58
2023/08/12 04:00:34;;;;;;;;;15.60;14.80;;;;;20.97;68.33;99928.84;4959639;28;8877;-59
2023/08/12 04:03:02;;;;;;;;;12.40;12.40;;;;;20.96;68.03;99929.06;4959463;28;8865;-58
2023/08/12 04:05:29;;;;;;;;;15.00;14.60;;;;;20.94;68.66;99923.81;4959402;28;8863;-57
2023/08/12 04:07:57;;;;;;;;;13.60;12.00;;;;;20.93;68.58;99926.72;4959261;28;9574;-58
2023/08/12 04:10:25;;;;;;;;;16.40;14.20;;;;;20.89;68.69;99920.84;4958695;28;8863;-59
2023/08/12 04:12:52;;;;;;;;;16.60;15.00;;;;;20.85;69.17;99915.94;4958758;28;8845;-58
2023/08/12 04:15:20;;;;;;;;;14.60;13.80;;;;;20.82;68.91;99916.34;4959122;28;9534;-58
2023/08/12 04:17:48;;;;;;;;;17.80;16.80;;;;;20.77;69.12;99907.94;4959074;28;8837;-59
2023/08/12 04:20:16;;;;;;;;;12.40;12.00;;;;;20.72;69.22;99910.38;4958658;28;9523;-59
2023/08/12 04:22:43;;;;;;;;;12.00;12.00;;;;;20.69;69.36;99921.56;4958909;28;8853;-58
2023/08/12 04:25:15;;;;;;;;;15.80;14.40;;;;;20.65;69.16;99916.72;4958676;28;8845;-59
2023/08/12 04:27:43;;;;;;;;;15.60;14.60;;;;;20.61;69.20;99907.28;4958106;28;8984;-59
2023/08/12 04:30:11;;;;;;;;;14.40;14.20;;;;;20.57;69.33;99909.53;4958355;28;8873;-58
2023/08/12 04:32:38;;;;;;;;;13.40;12.20;;;;;20.54;69.41;99899.06;4958131;28;8907;-59
2023/08/12 04:35:06;;;;;;;;;11.00;10.60;;;;;20.52;69.32;99893.00;4958332;28;8853;-58
2023/08/12 04:37:36;;;;;;;;;15.00;15.00;;;;;20.53;69.84;99891.13;4958276;28;9512;-58
2023/08/12 04:40:04;;;;;;;;;12.20;11.20;;;;;20.56;69.74;99888.88;4958060;28;8841;-59
2023/08/12 04:42:32;;;;;;;;;15.80;13.80;;;;;20.59;69.57;99884.97;4958366;28;8991;-59
2023/08/12 04:45:00;;;;;;;;;13.60;13.40;;;;;20.62;69.33;99884.63;4957687;28;8845;-58
2023/08/12 04:47:29;;;;;;;;;7.00;5.80;;;;;20.65;69.33;99884.22;4958260;28;8844;-60
2023/08/12 04:49:57;;;;;;;;;11.00;11.00;;;;;20.69;69.24;99883.66;4958194;28;8935;-60
2023/08/12 04:52:24;;;;;;;;;16.60;14.80;;;;;20.73;68.98;99884.13;4969847;28;8840;-58
2023/08/12 04:54:52;;;;;;;;;14.00;13.80;;;;;20.80;69.28;99864.25;4978044;28;8821;-60
2023/08/12 04:57:20;;;;;;;;;17.00;14.00;;;;;20.85;68.74;99865.38;4977669;28;8835;-58
2023/08/12 04:59:47;;;;;;;;;16.40;15.80;;;;;20.91;68.62;99869.19;4977695;28;8951;-59
2023/08/12 05:02:15;;;;;;;;;12.00;11.20;;;;;20.97;68.99;99876.56;4977407;28;8902;-58
2023/08/12 05:04:43;;;;;;;;;13.80;12.00;;;;;21.02;68.75;99882.28;4977515;28;8869;-58
2023/08/12 05:07:10;;;;;;;;;11.80;11.00;;;;;21.07;68.42;99882.53;4977458;28;8837;-58
2023/08/12 05:09:38;;;;;;;;;14.00;14.00;;;;;21.11;68.31;99875.72;4977327;28;8837;-58
2023/08/12 05:12:05;;;;;;;;;11.40;11.20;;;;;21.15;68.10;99874.28;4977508;28;8837;-58
2023/08/12 05:14:33;;;;;;;;;14.20;14.00;;;;;21.19;68.51;99871.00;4977345;28;8829;-58
2023/08/12 05:17:01;;;;;;;;;12.40;12.00;;;;;21.24;68.33;99867.72;4977079;28;8841;-58
2023/08/12 05:19:28;;;;;;;;;11.60;11.40;;;;;21.27;68.05;99862.75;4977049;28;8959;-59
2023/08/12 05:21:56;;;;;;;;;12.60;11.00;;;;;21.30;68.28;99856.13;4976770;28;8828;-58
2023/08/12 05:24:24;;;;;;;;;9.80;9.40;;;;;21.33;68.39;99853.03;4977133;28;8833;-58
2023/08/12 05:26:51;;;;;;;;;15.60;15.40;;;;;21.33;68.37;99845.72;4976635;28;8932;-57
2023/08/12 05:29:19;;;;;;;;;12.40;11.60;;;;;21.35;68.11;99838.25;4976656;28;8841;-58
2023/08/12 05:31:47;;;;;;;;;11.00;9.20;;;;;21.38;68.32;99837.00;4976528;28;8846;-58
2023/08/12 05:34:15;;;;;;;;;10.60;9.40;;;;;21.39;67.99;99839.53;4976796;28;8832;-58
2023/08/12 05:36:43;;;;;;;;;13.60;13.20;;;;;21.41;67.93;99842.06;4976668;28;8860;-57
2023/08/12 05:39:11;;;;;;;;;10.20;9.20;;;;;21.42;68.16;99841.84;4976472;28;8853;-59
2023/08/12 05:41:39;;;;;;;;;10.60;9.20;;;;;21.43;67.97;99845.41;4976381;28;8828;-59
2023/08/12 05:44:06;;;;;;;;;11.40;10.60;;;;;21.45;68.59;99843.34;4976068;28;8840;-59
2023/08/12 05:46:34;;;;;;;;;11.80;11.60;;;;;21.47;67.92;99841.28;4975353;28;8867;-58
2023/08/12 05:49:02;;;;;;;;;7.00;5.00;;;;;21.51;68.25;99854.28;4975679;28;8828;-58
2023/08/12 05:51:29;;;;;;;;;12.00;11.00;;;;;21.54;68.04;99853.88;4974343;28;8828;-57
2023/08/12 05:53:57;;;;;;;;;12.00;11.00;;;;;21.57;67.87;99855.34;4975273;28;8883;-57
2023/08/12 05:56:25;;;;;;;;;11.20;10.20;;;;;21.60;68.01;99857.66;4976169;28;8828;-59
2023/08/12 05:58:53;;;;;;;;;9.20;8.80;;;;;21.64;68.09;99854.38;4976381;28;8870;-58
2023/08/12 06:01:20;;;;;;;;;9.00;8.60;;;;;21.67;67.93;99848.59;4976567;28;8828;-58
2023/08/12 06:03:48;;;;;;;;;10.20;9.20;;;;;21.72;67.49;99856.16;4976696;28;8821;-58
2023/08/12 06:06:16;;;;;;;;;13.00;12.40;;;;;21.75;68.18;99850.34;4976438;28;8829;-58
2023/08/12 06:08:43;;;;;;;;;9.00;9.00;;;;;21.80;67.58;99853.31;4976449;28;8845;-58
2023/08/12 06:11:11;;;;;;;;;10.60;10.20;;;;;21.85;67.92;99838.13;4975987;28;8828;-59
2023/08/12 06:13:41;;;;;;;;;14.60;13.80;;;;;21.91;67.44;99850.03;4977245;28;8825;-59
2023/08/12 06:16:12;;;;;;;;;15.60;12.00;;;;;21.97;67.38;99849.28;4980298;28;8833;-58
2023/08/12 06:18:39;;;;;;;;;13.20;13.20;;;;;22.04;67.54;99852.88;4979820;28;9495;-58
2023/08/12 06:21:07;;;;;;;;;12.20;12.00;;;;;22.09;67.31;99853.13;4979782;28;8931;-59
2023/08/12 06:23:34;;;;;;;;;11.00;10.00;;;;;22.10;67.06;99849.38;4979164;28;8849;-58
2023/08/12 06:26:02;;;;;;;;;23.20;21.00;;;;;22.11;67.13;99851.06;4979168;28;8824;-58
2023/08/12 06:28:30;;;;;;;;;11.40;11.40;;;;;22.09;67.70;99842.28;4978473;28;8840;-58
2023/08/12 06:30:58;;;;;;;;;11.80;9.40;;;;;22.08;67.73;99838.72;4979258;28;8856;-58
2023/08/12 06:33:25;;;;;;;;;5.00;5.00;;;;;22.09;67.69;99845.81;4979420;28;8965;-58
2023/08/12 06:35:53;;;;;;;;;8.00;8.00;;;;;22.08;67.89;99843.31;4978577;28;8828;-59
2023/08/12 06:38:21;;;;;;;;;7.80;7.60;;;;;22.08;67.93;99851.47;4978637;28;8888;-58
2023/08/12 06:40:49;;;;;;;;;9.00;8.80;;;;;22.09;67.78;99836.84;4979086;28;9510;-59
2023/08/12 06:43:16;;;;;;;;;12.00;10.80;;;;;22.11;67.54;99841.06;4978846;28;8837;-57
2023/08/12 06:45:44;;;;;;;;;10.80;9.00;;;;;22.09;67.55;99842.28;4979502;28;8861;-59
2023/08/12 06:48:12;;;;;;;;;8.60;8.60;;;;;22.07;68.38;99842.47;4979680;28;8920;-58
2023/08/12 06:50:40;;;;;;;;;8.80;8.80;;;;;22.03;68.11;99837.63;4979387;28;8832;-58
2023/08/12 06:53:08;;;;;;;;;12.00;12.00;;;;;21.98;68.27;99840.09;4978831;28;8805;-59
2023/08/12 06:55:36;;;;;;;;;10.80;9.80;;;;;21.92;68.79;99846.28;4979099;28;8817;-58
2023/08/12 06:58:04;;;;;;;;;12.20;12.20;;;;;21.84;69.04;99851.88;4979884;28;8848;-58
2023/08/12 07:00:31;;;;;;;;;9.00;8.20;;;;;21.72;69.34;99851.56;4979468;28;8844;-58
2023/08/12 07:02:59;;;;;;;;;6.20;5.60;;;;;21.60;69.30;99844.13;4978552;28;8827;-58
2023/08/12 07:05:27;;;;;;;;;6.00;6.00;;;;;21.48;70.35;99837.56;4978945;28;8859;-58
2023/08/12 07:07:54;;;;;;;;;8.00;8.00;;;;;21.36;70.55;99833.66;4978941;28;8844;-59
2023/08/12 07:10:22;;;;;;;;;7.80;7.00;;;;;21.28;70.48;99837.38;4979054;28;8862;-60
2023/08/12 07:12:50;;;;;;;;;7.00;6.80;;;;;21.20;70.65;99823.09;4978806;28;8855;-59
2023/08/12 07:15:18;;;;;;;;;7.00;7.00;;;;;21.15;71.29;99820.97;4978528;28;9530;-60
2023/08/12 07:17:45;;;;;;;;;8.00;8.00;;;;;21.11;71.63;99818.81;4970905;28;8952;-59
2023/08/12 07:20:14;;;;;;;;;7.20;6.60;;;;;21.04;71.71;99812.50;4978678;28;8832;-59
2023/08/12 07:22:41;;;;;;;;;8.00;7.40;;;;;20.98;71.98;99808.69;4978839;28;8836;-61
2023/08/12 07:25:09;;;;;;;;;8.80;8.00;;;;;20.92;72.02;99804.03;4976860;28;8836;-60
2023/08/12 07:27:38;;;;;;;;;8.00;7.00;;;;;20.88;71.79;99794.59;4978420;28;8859;-59
2023/08/12 07:30:05;;;;;;;;;7.80;7.80;;;;;20.87;72.06;99786.69;4978726;28;8862;-59
2023/08/12 07:32:33;;;;;;;;;5.40;5.40;;;;;20.86;72.38;99779.53;4978002;28;8862;-59
2023/08/12 07:35:01;;;;;;;;;6.20;6.20;;;;;20.85;72.50;99783.28;4978356;28;8840;-59
2023/08/12 07:37:29;;;;;;;;;5.80;5.80;;;;;20.86;72.41;99787.66;4978635;28;8828;-58
2023/08/12 07:39:56;;;;;;;;;6.20;5.80;;;;;20.86;72.30;99787.66;4978921;28;8983;-59
2023/08/12 07:42:24;;;;;;;;;1.80;1.80;;;;;20.92;72.24;99776.09;4978499;28;8851;-59
2023/08/12 07:44:52;;;;;;;;;4.60;4.40;;;;;20.97;71.61;99788.03;4978333;28;8962;-59
2023/08/12 07:47:20;;;;;;;;;6.20;6.20;;;;;21.04;71.78;99771.88;4976836;28;8840;-58
2023/08/12 07:49:47;;;;;;;;;7.00;6.60;;;;;21.15;71.68;99765.94;4976806;28;8836;-58
2023/08/12 07:52:15;;;;;;;;;7.00;6.20;;;;;21.23;71.40;99768.50;4976825;28;8982;-58
2023/08/12 07:54:43;;;;;;;;;4.40;4.40;;;;;21.39;70.78;99779.06;4977340;28;8840;-58
2023/08/12 07:57:10;;;;;;;;;7.20;7.20;;;;;21.55;70.76;99795.09;4976131;28;8813;-59
2023/08/12 07:59:38;;;;;;;;;8.00;6.80;;;;;21.74;69.93;99803.41;4976677;28;8836;-59
2023/08/12 08:02:06;;;;;;;;;4.80;4.00;;;;;21.92;69.34;99805.63;4976833;28;8840;-58
2023/08/12 08:04:35;;;;;;;;;6.00;5.00;;;;;22.12;69.13;99817.44;4977112;28;8907;-58
2023/08/12 08:07:03;;;;;;;;;4.20;4.20;;;;;22.30;68.80;99815.09;4976829;28;8829;-58
2023/08/12 08:09:31;;;;;;;;;5.00;5.00;;;;;22.43;68.39;99807.03;4977310;28;8991;-58
2023/08/12 08:11:58;;;;;;;;;6.20;6.20;;;;;22.51;68.13;99794.13;4977391;28;8855;-58
2023/08/12 08:14:27;;;;;;;;;4.60;4.60;;;;;22.58;67.98;99789.56;4977867;28;8860;-59
2023/08/12 08:16:55;;;;;;;;;5.60;5.60;;;;;22.67;68.39;99795.66;4977588;28;8825;-58
2023/08/12 08:19:25;;;;;;;;;4.60;4.60;;;;;22.77;67.98;99793.41;4977922;28;8816;-58
2023/08/12 08:21:56;;;;;;;;;7.60;5.00;;;;;22.89;67.70;99791.75;4977511;28;8867;-59
2023/08/12 08:24:24;;;;;;;;;5.00;5.00;;;;;23.02;67.34;99789.09;4977457;28;8869;-58
2023/08/12 08:26:52;;;;;;;;;6.00;5.60;;;;;23.08;67.88;99771.97;4976459;28;8829;-59
2023/08/12 08:29:21;;;;;;;;;5.00;4.00;;;;;23.18;67.42;99758.84;4976594;28;8824;-58
2023/08/12 08:31:48;;;;;;;;;5.00;5.00;;;;;23.25;66.97;99765.97;4976559;28;8845;-58
2023/08/12 08:34:16;;;;;;;;;1.00;1.00;;;;;23.34;67.43;99763.88;4977044;28;8856;-59
2023/08/12 08:36:44;;;;;;;;;4.00;4.00;;;;;23.49;67.26;99762.66;4975988;28;8828;-58
2023/08/12 08:39:12;;;;;;;;;8.20;5.20;;;;;23.65;66.74;99766.81;4976723;28;8883;-58
2023/08/12 08:41:40;;;;;;;;;5.00;5.00;;;;;23.68;67.29;99767.22;4976103;28;8848;-58
2023/08/12 08:44:08;;;;;;;;;4.80;4.80;;;;;23.72;67.01;99767.66;4975745;28;8832;-58
2023/08/12 08:46:36;;;;;;;;;5.40;5.40;;;;;23.76;67.06;99768.91;4975673;28;8967;-59
2023/08/12 08:49:04;;;;;;;;;5.60;5.00;;;;;23.79;67.16;99779.38;4975086;28;8906;-58
2023/08/12 08:51:32;;;;;;;;;4.00;4.00;;;;;23.84;66.88;99768.69;4976211;28;8867;-58
2023/08/12 08:54:00;;;;;;;;;4.00;4.00;;;;;23.89;67.23;99774.38;4976636;28;8825;-58
2023/08/12 08:56:30;;;;;;;;;4.60;4.60;;;;;23.95;67.11;99782.53;4976974;28;8971;-58
2023/08/12 08:58:58;;;;;;;;;5.00;5.00;;;;;23.92;67.22;99779.41;4976599;28;8911;-58
2023/08/12 09:01:26;;;;;;;;;5.00;3.00;;;;;23.87;67.81;99776.47;4975919;28;8857;-58
2023/08/12 09:03:54;;;;;;;;;4.80;4.20;;;;;23.82;68.18;99778.97;4976144;28;8840;-58
2023/08/12 09:06:22;;;;;;;;;5.20;4.20;;;;;23.77;68.29;99787.75;4975642;28;8828;-58
2023/08/12 09:08:50;;;;;;;;;4.00;4.00;;;;;23.73;68.55;99777.47;4956908;28;8869;-58
2023/08/12 09:11:18;;;;;;;;;4.00;4.00;;;;;23.74;68.11;99790.06;4956393;28;8831;-57
2023/08/12 09:13:46;;;;;;;;;2.80;2.80;;;;;23.84;68.62;99787.75;4956876;28;8842;-57
2023/08/12 09:16:14;;;;;;;;;2.60;2.00;;;;;23.93;68.54;99791.94;4957366;28;8884;-57
2023/08/12 09:18:42;;;;;;;;;3.20;3.20;;;;;24.04;68.36;99783.16;4956352;28;8869;-57
2023/08/12 09:21:10;;;;;;;;;5.00;4.00;;;;;24.10;68.20;99787.72;4956700;28;9505;-58
2023/08/12 09:23:38;;;;;;;;;4.40;4.00;;;;;24.09;68.31;99791.50;4960108;28;8817;-58
2023/08/12 09:26:06;;;;;;;;;1.40;1.40;;;;;24.04;68.98;99786.69;4975679;28;8852;-58
2023/08/12 09:28:34;;;;;;;;;3.20;3.20;;;;;24.04;68.47;99791.31;4974788;28;9773;-60
2023/08/12 09:31:02;;;;;;;;;3.00;2.20;;;;;23.97;69.08;99795.94;4974546;28;9636;-60
2023/08/12 09:33:31;;;;;;;;;4.00;4.00;;;;;23.89;69.48;99804.31;4975230;28;8853;-59
2023/08/12 09:35:58;;;;;;;;;2.20;2.20;;;;;23.66;69.51;99795.72;4975439;28;8817;-59
2023/08/12 09:38:26;;;;;;;;;2.40;2.00;;;;;23.40;70.41;99801.97;4975551;28;9487;-59
2023/08/12 09:40:55;;;;;;;;;1.00;1.00;;;;;23.28;70.70;99792.72;4974928;28;8864;-58
2023/08/12 09:43:23;;;;;;;;;3.40;3.40;;;;;23.27;71.32;99790.22;4974927;28;8833;-59
2023/08/12 09:45:52;;;;;;;;;4.00;4.00;;;;;23.34;70.63;99796.50;4974955;28;8832;-59
2023/08/12 09:48:19;;;;;;;;;4.40;4.40;;;;;23.44;70.18;99802.38;4974668;28;8852;-59
2023/08/12 09:50:47;;;;;;;;;4.00;4.00;;;;;23.50;69.80;99791.50;4974370;28;8851;-59
2023/08/12 09:53:15;;;;;;;;;4.00;2.40;;;;;23.60;70.25;99791.91;4973500;28;8833;-58
2023/08/12 09:55:43;;;;;;;;;5.20;5.20;;;;;23.69;69.91;99789.84;4973519;28;8829;-60
2023/08/12 09:58:12;;;;;;;;;5.20;4.80;;;;;23.80;69.32;99789.19;4972784;28;8812;-58
2023/08/12 10:00:41;;;;;;;;;2.80;2.80;;;;;23.96;69.03;99791.53;4973833;28;8883;-58
2023/08/12 10:03:09;;;;;;;;;2.00;1.80;;;;;24.20;68.96;99790.88;4974064;28;8829;-58
2023/08/12 10:05:37;;;;;;;;;0.60;0.60;;;;;24.57;67.83;99795.63;4973038;28;8821;-59
2023/08/12 10:08:06;;;;;;;;;2.00;2.00;;;;;24.82;67.60;99793.81;4973444;28;8829;-59
2023/08/12 10:10:33;;;;;;;;;3.00;3.00;;;;;24.94;67.17;99787.47;4974687;28;8840;-59
2023/08/12 10:13:01;;;;;;;;;3.00;3.00;;;;;25.04;66.90;99792.47;4975474;28;8855;-60
2023/08/12 10:15:29;;;;;;;;;2.40;2.40;;;;;25.05;66.94;99796.84;4975513;28;8836;-58
2023/08/12 10:17:58;;;;;;;;;2.00;2.00;;;;;25.18;67.16;99794.06;4975214;28;8915;-59
2023/08/12 10:20:27;;;;;;;;;4.60;3.00;;;;;25.32;66.31;99790.22;4975075;28;8840;-59
2023/08/12 10:22:55;;;;;;;;;2.00;2.00;;;;;25.40;66.20;99793.50;4974789;28;8828;-58
2023/08/12 10:25:24;;;;;;;;;2.40;2.00;;;;;25.46;66.39;99781.72;4974793;28;8855;-59
2023/08/12 10:27:52;;;;;;;;;2.00;2.00;;;;;25.46;65.90;99794.50;4974066;28;8960;-59
2023/08/12 10:30:20;;;;;;;;;3.20;2.80;;;;;25.45;65.92;99796.41;4974764;28;8939;-59
2023/08/12 10:32:48;;;;;;;;;2.00;2.00;;;;;25.40;66.02;99784.50;4974392;28;8975;-61
2023/08/12 10:35:16;;;;;;;;;3.00;3.00;;;;;25.29;66.69;99791.50;4973652;28;8871;-59
2023/08/12 10:37:44;;;;;;;;;3.80;3.80;;;;;25.15;67.51;99805.38;4974267;28;8934;-59
2023/08/12 10:40:11;;;;;;;;;5.60;5.00;;;;;24.99;67.41;99801.28;4974085;28;9522;-59
2023/08/12 10:42:43;;;;;;;;;3.80;3.80;;;;;24.81;67.72;99797.59;4973952;28;8836;-59
2023/08/12 10:45:11;;;;;;;;;4.60;3.40;;;;;24.65;68.22;99798.09;4974172;28;8918;-59
2023/08/12 10:47:39;;;;;;;;;3.00;3.00;;;;;24.54;68.43;99793.28;4974319;28;8848;-61
2023/08/12 10:50:07;;;;;;;;;4.60;3.00;;;;;24.56;68.29;99794.78;4974253;28;9593;-59
2023/08/12 10:52:36;;;;;;;;;2.00;2.00;;;;;24.79;67.52;99788.81;4973489;28;8856;-60
2023/08/12 10:55:04;;;;;;;;;3.00;3.00;;;;;24.96;67.30;99798.16;4974123;28;8841;-59
2023/08/12 10:57:31;;;;;;;;;4.60;4.60;;;;;25.06;66.96;99793.91;4974255;28;8932;-59
2023/08/12 10:59:59;;;;;;;;;5.00;5.00;;;;;25.08;66.73;99793.69;4974538;28;8836;-58
2023/08/12 11:02:28;;;;;;;;;3.80;3.80;;;;;24.99;67.18;99793.13;4977155;28;8837;-59
2023/08/12 11:04:55;;;;;;;;;7.00;6.20;;;;;24.95;66.97;99794.59;4977020;28;8928;-59
2023/08/12 11:07:24;;;;;;;;;5.40;5.40;;;;;24.92;66.87;99780.56;4976222;28;8825;-61
2023/08/12 11:09:52;;;;;;;;;4.60;4.60;;;;;24.92;67.52;99777.84;4976715;28;8878;-61
2023/08/12 11:12:20;;;;;;;;;5.20;3.40;;;;;24.99;66.92;99778.63;4977386;28;8927;-60
2023/08/12 11:14:48;;;;;;;;;3.40;3.40;;;;;25.10;66.61;99780.69;4976397;28;9526;-58
2023/08/12 11:17:16;;;;;;;;;3.00;3.00;;;;;25.37;66.39;99766.69;4977293;28;8848;-59
2023/08/12 11:19:44;;;;;;;;;5.00;5.00;;;;;25.63;65.47;99762.91;4976702;28;8910;-59
2023/08/12 11:22:13;;;;;;;;;5.80;5.20;;;;;26.06;64.58;99751.00;4976492;28;8848;-61
2023/08/12 11:24:42;;;;;;;;;5.00;5.00;;;;;26.32;63.58;99759.72;4976269;28;8910;-58
2023/08/12 11:27:10;;;;;;;;;5.60;5.20;;;;;26.94;62.31;99751.19;4976941;28;8860;-58
2023/08/12 11:29:38;;;;;;;;;6.20;6.00;;;;;27.39;61.23;99743.41;4976177;28;8836;-59
2023/08/12 11:32:05;;;;;;;;;6.40;6.20;;;;;27.92;59.92;99744.22;4976731;28;8844;-61
2023/08/12 11:34:34;;;;;;;;;1.00;1.00;;;;;28.06;60.23;99737.41;4977101;28;8975;-59